Crossings, Florida
Current Conditions -  °F | °C
As of 8:53 PM on Friday 28 Nov 2014 (Local Time) from KTMB Reporting Station
Clear Clear  
Wind Chill: 60°   Ceiling: Unl
Heat Index: 60°   Visibility: 10mi
Dew Point: 52°   Wind: 10mph
Humidity: 75%   Direction: 360°N
Pressure: 30.2"   Gusts: NA
Location:  25.6565°N, 80.4096°W
Report Text: KTMB 290153Z 36009KT 10SM CLR 16/11 A3020 RMK AO2 SLP227 T01560111
Loading
Personal Weather Stations






























Interactive Weather Map New forecast layout! Learn more

10-Day Weather Forecast

Advertisements
Track Severe Weather on mobile